Time;durP1;ratioP1;P1;durP2;ratioP2;P2;SDS_P1;SDS_P2;PMS_P1;PMS_P2;Temp;Humidity;BMP_temperature;BMP_pressure;BME280_temperature;BME280_humidity;BME280_pressure;Samples;Min_cycle;Max_cycle;Signal;HPM_P1;HPM_P2
2022/03/29 00:01:55;;;;;;;2.08;1.42;;;22.00;39.80;;;;;;5003479;28;20065;-61
2022/03/29 00:04:22;;;;;;;2.30;1.50;;;22.00;39.80;;;;;;5007441;28;20125;-64
2022/03/29 00:06:47;;;;;;;2.50;1.52;;;22.00;39.80;;;;;;5008133;28;20030;-61
2022/03/29 00:09:13;;;;;;;2.70;1.55;;;22.00;39.70;;;;;;5004667;28;20041;-63
2022/03/29 00:11:39;;;;;;;2.50;1.67;;;22.00;39.70;;;;;;5007158;28;20054;-66
2022/03/29 00:14:06;;;;;;;2.08;1.40;;;22.00;39.70;;;;;;5007089;28;20324;-66
2022/03/29 00:16:32;;;;;;;1.92;1.45;;;22.00;39.70;;;;;;5005065;28;20129;-63
2022/03/29 00:18:58;;;;;;;2.00;1.35;;;22.00;39.70;;;;;;5005962;28;20050;-66
2022/03/29 00:21:23;;;;;;;2.63;1.58;;;22.00;39.80;;;;;;5005682;28;20068;-63
2022/03/29 00:23:49;;;;;;;2.10;1.40;;;22.00;39.70;;;;;;5008167;28;20034;-61
2022/03/29 00:26:16;;;;;;;2.00;1.42;;;22.00;39.70;;;;;;5007152;28;20030;-63
2022/03/29 00:28:42;;;;;;;2.50;1.30;;;22.00;39.70;;;;;;5005556;28;20041;-66
2022/03/29 00:31:08;;;;;;;2.58;1.50;;;22.00;39.80;;;;;;5004834;28;20418;-66
2022/03/29 00:33:34;;;;;;;2.83;1.58;;;22.00;39.70;;;;;;5005535;28;20064;-63
2022/03/29 00:35:59;;;;;;;2.13;1.40;;;21.90;39.70;;;;;;5004708;28;20549;-66
2022/03/29 00:38:25;;;;;;;2.20;1.60;;;21.90;39.70;;;;;;5005649;28;20454;-65
2022/03/29 00:40:51;;;;;;;2.70;1.60;;;21.90;39.70;;;;;;5004563;28;20036;-67
2022/03/29 00:43:17;;;;;;;2.20;1.63;;;21.90;39.70;;;;;;5005788;28;20568;-63
2022/03/29 00:45:45;;;;;;;2.00;1.48;;;21.90;39.60;;;;;;5005470;28;20068;-63
2022/03/29 00:48:12;;;;;;;2.75;1.75;;;21.90;39.70;;;;;;5004591;28;20017;-66
2022/03/29 00:50:38;;;;;;;2.30;1.58;;;21.90;39.70;;;;;;5006436;28;20014;-67
2022/03/29 00:53:05;;;;;;;2.22;1.50;;;21.90;39.70;;;;;;5006231;28;20034;-66
2022/03/29 00:55:31;;;;;;;2.45;1.60;;;21.90;39.70;;;;;;5004805;28;20212;-66
2022/03/29 00:57:58;;;;;;;1.58;1.25;;;21.90;39.60;;;;;;5006134;28;20457;-66
2022/03/29 01:00:24;;;;;;;2.10;1.52;;;21.90;39.60;;;;;;5005101;28;20030;-65
2022/03/29 01:02:51;;;;;;;2.25;1.60;;;21.90;39.60;;;;;;5002807;28;20208;-66
2022/03/29 01:05:17;;;;;;;2.33;1.50;;;21.90;39.70;;;;;;5004785;28;20119;-67
2022/03/29 01:07:43;;;;;;;1.80;1.23;;;21.90;39.60;;;;;;5012405;28;20938;-67
2022/03/29 01:10:09;;;;;;;2.38;1.55;;;21.90;39.60;;;;;;5005095;28;20251;-61
2022/03/29 01:12:36;;;;;;;2.15;1.33;;;21.90;39.60;;;;;;5004897;28;20034;-66
2022/03/29 01:15:08;;;;;;;2.20;1.50;;;21.90;39.60;;;;;;5005446;28;20060;-62
2022/03/29 01:17:41;;;;;;;2.10;1.48;;;21.90;39.70;;;;;;5003411;28;20467;-66
2022/03/29 01:20:09;;;;;;;2.42;1.50;;;21.90;39.60;;;;;;5006120;28;20548;-62
2022/03/29 01:22:39;;;;;;;2.00;1.40;;;21.90;39.70;;;;;;5005101;28;20359;-61
2022/03/29 01:25:06;;;;;;;1.88;1.30;;;21.90;39.70;;;;;;5005957;28;20308;-67
2022/03/29 01:27:33;;;;;;;2.05;1.52;;;21.90;39.60;;;;;;5004261;28;20033;-63
2022/03/29 01:29:59;;;;;;;1.92;1.40;;;21.90;39.60;;;;;;5005443;28;20740;-65
2022/03/29 01:32:29;;;;;;;2.20;1.40;;;21.80;39.60;;;;;;5002568;28;20117;-65
2022/03/29 01:34:56;;;;;;;2.20;1.50;;;21.80;39.60;;;;;;5003509;28;20036;-63
2022/03/29 01:37:22;;;;;;;2.53;1.70;;;21.90;39.70;;;;;;5007129;28;20030;-66
2022/03/29 01:39:48;;;;;;;2.20;1.40;;;21.80;39.60;;;;;;5004270;28;20061;-64
2022/03/29 01:42:13;;;;;;;2.00;1.58;;;21.80;39.60;;;;;;5005422;28;20025;-66
2022/03/29 01:44:39;;;;;;;2.40;1.60;;;21.80;39.60;;;;;;5004256;28;20034;-65
2022/03/29 01:47:06;;;;;;;1.90;1.40;;;21.80;39.60;;;;;;5002096;28;20038;-66
2022/03/29 01:49:33;;;;;;;2.25;1.55;;;21.80;39.60;;;;;;5005742;28;20060;-66
2022/03/29 01:51:58;;;;;;;1.95;1.38;;;21.80;39.60;;;;;;5002087;28;20036;-64
2022/03/29 01:54:24;;;;;;;2.40;1.52;;;21.80;39.60;;;;;;5003928;28;20038;-66
2022/03/29 01:56:50;;;;;;;2.10;1.52;;;21.80;39.60;;;;;;5002125;28;20042;-63
2022/03/29 01:59:16;;;;;;;2.33;1.55;;;21.80;39.60;;;;;;5005102;28;20107;-65
2022/03/29 02:01:44;;;;;;;2.03;1.42;;;21.80;39.60;;;;;;5001957;28;20523;-63
2022/03/29 02:04:09;;;;;;;3.33;1.52;;;21.80;39.60;;;;;;5004934;28;20076;-64
2022/03/29 02:06:35;;;;;;;2.20;1.55;;;21.80;39.60;;;;;;5005821;28;20735;-66
2022/03/29 02:09:02;;;;;;;2.13;1.40;;;21.80;39.60;;;;;;5002117;28;20454;-63
2022/03/29 02:11:28;;;;;;;2.30;1.50;;;21.80;39.60;;;;;;5002535;28;20032;-66
2022/03/29 02:13:55;;;;;;;2.47;1.60;;;21.80;39.60;;;;;;5002776;28;20448;-67
2022/03/29 02:16:20;;;;;;;2.55;1.70;;;21.80;39.70;;;;;;4999021;28;20433;-66
2022/03/29 02:18:46;;;;;;;2.25;1.48;;;21.70;39.60;;;;;;5004674;28;20073;-60
2022/03/29 02:21:16;;;;;;;2.20;1.55;;;21.80;39.60;;;;;;5003755;28;20055;-62
2022/03/29 02:23:42;;;;;;;2.58;1.42;;;21.70;39.60;;;;;;5004919;28;20030;-61
2022/03/29 02:26:07;;;;;;;2.10;1.40;;;21.80;39.70;;;;;;5003696;28;20029;-66
2022/03/29 02:28:34;;;;;;;2.35;1.50;;;21.70;40.10;;;;;;5002430;28;20079;-66
2022/03/29 02:30:59;;;;;;;2.47;1.50;;;21.70;39.60;;;;;;5003470;28;20034;-65
2022/03/29 02:33:25;;;;;;;2.08;1.52;;;21.70;39.60;;;;;;5001673;28;20641;-66
2022/03/29 02:35:50;;;;;;;2.33;1.60;;;21.70;39.60;;;;;;5004886;28;20436;-63
2022/03/29 02:38:18;;;;;;;2.25;1.60;;;21.70;39.60;;;;;;5004062;28;20121;-66
2022/03/29 02:40:44;;;;;;;2.25;1.50;;;21.70;39.60;;;;;;5003869;28;20022;-65
2022/03/29 02:43:09;;;;;;;1.90;1.35;;;21.80;39.60;;;;;;5001025;28;20034;-66
2022/03/29 02:45:35;;;;;;;2.42;1.50;;;21.70;39.60;;;;;;5002091;28;20084;-66
2022/03/29 02:48:01;;;;;;;2.20;1.50;;;21.70;39.60;;;;;;5002428;28;20470;-65
2022/03/29 02:50:27;;;;;;;2.40;1.75;;;21.70;39.60;;;;;;5004990;28;20198;-64
2022/03/29 02:52:55;;;;;;;2.20;1.40;;;21.70;39.60;;;;;;5005136;28;20454;-66
2022/03/29 02:55:23;;;;;;;2.28;1.42;;;21.70;40.10;;;;;;5020629;28;20061;-66
2022/03/29 02:57:49;;;;;;;2.50;1.60;;;21.70;39.60;;;;;;5000648;28;20064;-60
2022/03/29 03:00:16;;;;;;;2.38;1.60;;;21.70;39.60;;;;;;5003103;28;20048;-63
2022/03/29 03:02:46;;;;;;;2.38;1.50;;;21.70;39.60;;;;;;5001281;28;20440;-63
2022/03/29 03:05:12;;;;;;;2.30;1.60;;;21.70;39.60;;;;;;5004588;28;20030;-63
2022/03/29 03:07:39;;;;;;;1.92;1.48;;;21.70;39.60;;;;;;4994359;28;20798;-66
2022/03/29 03:10:06;;;;;;;2.13;1.60;;;21.60;39.60;;;;;;5002545;28;20030;-66
2022/03/29 03:12:39;;;;;;;1.95;1.45;;;21.70;39.60;;;;;;5001682;28;20045;-65
2022/03/29 03:15:07;;;;;;;2.20;1.58;;;21.70;39.60;;;;;;5002819;28;20466;-65
2022/03/29 03:17:33;;;;;;;3.00;1.80;;;21.60;39.60;;;;;;5000401;28;20042;-66
2022/03/29 03:19:59;;;;;;;2.15;1.60;;;21.60;39.60;;;;;;5003981;28;20107;-66
2022/03/29 03:22:25;;;;;;;2.03;1.52;;;21.60;39.60;;;;;;5002687;28;20050;-61
2022/03/29 03:24:51;;;;;;;2.17;1.42;;;21.60;39.60;;;;;;5004017;28;20030;-62
2022/03/29 03:27:17;;;;;;;2.22;1.58;;;21.60;39.60;;;;;;5005084;28;20482;-63
2022/03/29 03:29:44;;;;;;;2.08;1.30;;;21.60;39.60;;;;;;5000108;28;20036;-63
2022/03/29 03:32:10;;;;;;;2.20;1.50;;;21.60;39.60;;;;;;4999172;28;20080;-62
2022/03/29 03:34:35;;;;;;;2.50;1.50;;;21.60;39.60;;;;;;5008047;28;20034;-65
2022/03/29 03:37:03;;;;;;;2.30;1.63;;;21.60;39.60;;;;;;5005052;28;20399;-65
2022/03/29 03:39:34;;;;;;;2.00;1.33;;;21.60;39.60;;;;;;5009205;28;20046;-66
2022/03/29 03:42:07;;;;;;;2.00;1.50;;;21.60;39.60;;;;;;5006684;28;20045;-66
2022/03/29 03:44:33;;;;;;;1.98;1.50;;;21.60;39.60;;;;;;5005893;28;20047;-61
2022/03/29 03:47:00;;;;;;;2.40;1.65;;;21.60;39.60;;;;;;5000718;28;20053;-65
2022/03/29 03:49:26;;;;;;;2.10;1.50;;;21.60;39.60;;;;;;5006729;28;20561;-64
2022/03/29 03:51:52;;;;;;;2.17;1.50;;;21.60;39.60;;;;;;5002356;28;20022;-63
2022/03/29 03:54:18;;;;;;;2.00;1.50;;;21.60;39.60;;;;;;5008334;28;20037;-66
2022/03/29 03:56:43;;;;;;;2.10;1.50;;;21.60;39.60;;;;;;5004040;28;20057;-65
2022/03/29 03:59:09;;;;;;;2.10;1.50;;;21.60;39.60;;;;;;5005405;28;20354;-62
2022/03/29 04:01:35;;;;;;;2.15;1.40;;;21.60;39.60;;;;;;5001980;28;20053;-60
2022/03/29 04:04:00;;;;;;;2.13;1.35;;;21.60;39.60;;;;;;5004937;28;20053;-66
2022/03/29 04:06:26;;;;;;;2.28;1.50;;;21.60;39.60;;;;;;5006523;28;20052;-64
2022/03/29 04:08:52;;;;;;;2.15;1.40;;;21.60;39.60;;;;;;5004262;28;20506;-62
2022/03/29 04:11:19;;;;;;;2.03;1.45;;;21.60;39.60;;;;;;5000126;28;20438;-66
2022/03/29 04:13:45;;;;;;;1.70;1.15;;;21.60;39.60;;;;;;5022309;28;20490;-63
2022/03/29 04:16:10;;;;;;;2.13;1.60;;;21.60;39.60;;;;;;5004140;28;20032;-66
2022/03/29 04:18:36;;;;;;;2.20;1.35;;;21.60;39.60;;;;;;5002075;28;20156;-66
2022/03/29 04:21:04;;;;;;;2.22;1.50;;;21.60;39.70;;;;;;5006540;28;20471;-66
2022/03/29 04:23:30;;;;;;;2.42;1.70;;;21.50;39.60;;;;;;5006614;28;20109;-66
2022/03/29 04:25:57;;;;;;;2.28;1.40;;;21.60;39.60;;;;;;5005770;28;20243;-66
2022/03/29 04:28:23;;;;;;;2.28;1.50;;;21.60;39.70;;;;;;5003364;28;20026;-63
2022/03/29 04:30:49;;;;;;;1.90;1.35;;;21.50;39.60;;;;;;5003333;28;20514;-65
2022/03/29 04:33:14;;;;;;;2.30;1.40;;;21.60;39.60;;;;;;5003425;28;20033;-66
2022/03/29 04:35:40;;;;;;;2.30;1.42;;;21.60;39.70;;;;;;4999920;28;20454;-66
2022/03/29 04:38:06;;;;;;;2.78;1.70;;;21.50;39.70;;;;;;5004953;28;20233;-65
2022/03/29 04:40:31;;;;;;;2.53;1.45;;;21.50;39.60;;;;;;5005176;28;20025;-66
2022/03/29 04:43:00;;;;;;;3.00;1.50;;;21.50;39.60;;;;;;5006030;28;20025;-65
2022/03/29 04:45:26;;;;;;;2.20;1.57;;;21.50;39.60;;;;;;5002259;28;20137;-66
2022/03/29 04:47:52;;;;;;;2.13;1.58;;;21.50;39.70;;;;;;5004680;28;20038;-65
2022/03/29 04:50:17;;;;;;;2.38;1.40;;;21.50;39.70;;;;;;5002012;28;20072;-63
2022/03/29 04:52:46;;;;;;;2.33;1.50;;;21.50;39.70;;;;;;4999793;28;20073;-66
2022/03/29 04:55:16;;;;;;;1.88;1.40;;;21.50;39.70;;;;;;5003673;28;20033;-66
2022/03/29 04:57:43;;;;;;;2.20;1.52;;;21.50;39.70;;;;;;5001422;28;20030;-66
2022/03/29 05:00:12;;;;;;;2.30;1.65;;;21.50;39.70;;;;;;5002175;28;20470;-65
2022/03/29 05:02:38;;;;;;;2.60;1.58;;;21.50;39.70;;;;;;5000619;28;20046;-66
2022/03/29 05:05:04;;;;;;;2.53;1.70;;;21.50;39.70;;;;;;4999212;28;20103;-65
2022/03/29 05:07:30;;;;;;;2.38;1.40;;;21.50;39.70;;;;;;5005637;28;20025;-63
2022/03/29 05:09:56;;;;;;;2.28;1.50;;;21.50;39.70;;;;;;5007089;28;20518;-65
2022/03/29 05:12:21;;;;;;;2.70;1.77;;;21.50;39.70;;;;;;5003318;28;20099;-63
2022/03/29 05:14:47;;;;;;;2.30;1.50;;;21.50;39.70;;;;;;5006385;28;20088;-65
2022/03/29 05:17:13;;;;;;;2.30;1.60;;;21.50;39.80;;;;;;5002014;28;20398;-64
2022/03/29 05:19:38;;;;;;;2.35;1.42;;;21.50;39.70;;;;;;5005838;28;20037;-64
2022/03/29 05:22:05;;;;;;;2.25;1.40;;;21.50;39.70;;;;;;5005719;28;20589;-64
2022/03/29 05:24:30;;;;;;;1.80;1.33;;;21.50;39.80;;;;;;5007803;28;20089;-63
2022/03/29 05:26:56;;;;;;;2.55;1.65;;;21.40;39.70;;;;;;5003711;28;20034;-66
2022/03/29 05:29:22;;;;;;;2.80;1.60;;;21.50;39.80;;;;;;5003348;28;20026;-62
2022/03/29 05:31:47;;;;;;;2.13;1.35;;;21.40;39.80;;;;;;5001664;28;20118;-65
2022/03/29 05:34:16;;;;;;;2.63;1.65;;;21.40;39.80;;;;;;5005678;28;20054;-65
2022/03/29 05:36:44;;;;;;;3.40;1.50;;;21.40;39.80;;;;;;5005400;28;20029;-66
2022/03/29 05:39:10;;;;;;;2.30;1.50;;;21.50;39.80;;;;;;5006721;28;20470;-65
2022/03/29 05:41:36;;;;;;;1.92;1.30;;;21.40;39.80;;;;;;5004625;28;20048;-65
2022/03/29 05:44:02;;;;;;;2.30;1.55;;;21.40;39.80;;;;;;5004371;28;20030;-64
2022/03/29 05:49:11;;;;;;;2.50;1.70;;;21.40;39.80;;;;;;5003531;28;20398;-66
2022/03/29 05:51:37;;;;;;;2.03;1.48;;;21.40;39.80;;;;;;5003349;28;20034;-66
2022/03/29 05:54:04;;;;;;;2.25;1.50;;;21.40;39.80;;;;;;5005094;28;20034;-63
2022/03/29 05:56:30;;;;;;;1.85;1.30;;;21.40;39.80;;;;;;5005321;28;20034;-66
2022/03/29 05:58:56;;;;;;;2.30;1.45;;;21.40;39.80;;;;;;5005776;28;20037;-66
2022/03/29 06:01:22;;;;;;;1.70;1.27;;;21.40;39.80;;;;;;5002871;28;20470;-66
2022/03/29 06:03:48;;;;;;;2.20;1.52;;;21.40;39.80;;;;;;5003920;28;20037;-63
2022/03/29 06:06:14;;;;;;;2.13;1.50;;;21.40;40.00;;;;;;5004112;28;20026;-66
2022/03/29 06:08:40;;;;;;;2.25;1.40;;;21.40;39.80;;;;;;5005439;28;20113;-66
2022/03/29 06:11:07;;;;;;;2.22;1.50;;;21.40;39.80;;;;;;5004227;28;20052;-65
2022/03/29 06:13:33;;;;;;;2.40;1.60;;;21.40;39.80;;;;;;5002366;28;20328;-65
2022/03/29 06:15:59;;;;;;;2.72;1.50;;;21.40;39.80;;;;;;5004266;28;20083;-63
2022/03/29 06:18:24;;;;;;;2.38;1.58;;;21.40;39.70;;;;;;5002133;28;20044;-66
2022/03/29 06:20:51;;;;;;;2.15;1.42;;;21.40;39.80;;;;;;5004505;28;20033;-61
2022/03/29 06:23:16;;;;;;;4.13;1.55;;;21.40;39.80;;;;;;5004038;28;20465;-66
2022/03/29 06:25:43;;;;;;;1.75;1.35;;;21.40;39.80;;;;;;5005757;28;20156;-66
2022/03/29 06:28:10;;;;;;;2.20;1.60;;;21.40;39.80;;;;;;5002463;28;20108;-65
2022/03/29 06:30:37;;;;;;;2.47;1.50;;;21.40;39.80;;;;;;5003368;28;20212;-65
2022/03/29 06:33:03;;;;;;;2.58;1.60;;;21.40;39.80;;;;;;4999846;28;20022;-64
2022/03/29 06:35:31;;;;;;;2.15;1.50;;;21.40;39.80;;;;;;5005128;28;20389;-61
2022/03/29 06:37:58;;;;;;;3.08;1.58;;;21.30;39.70;;;;;;5001308;28;20122;-65
2022/03/29 06:40:25;;;;;;;2.72;1.55;;;21.40;39.70;;;;;;5002802;28;20038;-65
2022/03/29 06:42:51;;;;;;;3.03;1.55;;;21.30;39.70;;;;;;5002065;28;20062;-63
2022/03/29 06:45:17;;;;;;;2.90;1.70;;;21.40;39.70;;;;;;5001871;28;20059;-66
2022/03/29 06:47:42;;;;;;;2.40;1.55;;;21.30;39.70;;;;;;5003196;28;20946;-65
2022/03/29 06:50:10;;;;;;;2.92;1.70;;;21.30;39.70;;;;;;5004496;28;20042;-63
2022/03/29 06:52:40;;;;;;;2.60;1.70;;;21.40;39.70;;;;;;5003672;28;20387;-62
2022/03/29 06:55:07;;;;;;;2.25;1.60;;;21.30;39.70;;;;;;5002146;28;20455;-63
2022/03/29 06:57:33;;;;;;;2.70;1.80;;;21.30;39.60;;;;;;5004558;28;20413;-64
2022/03/29 06:59:59;;;;;;;2.72;1.70;;;21.40;39.60;;;;;;5004699;28;20338;-65
2022/03/29 07:02:24;;;;;;;2.85;1.85;;;21.40;39.60;;;;;;5000664;28;20073;-61
2022/03/29 07:04:51;;;;;;;2.67;1.80;;;21.40;39.60;;;;;;5005614;28;20041;-66
2022/03/29 07:07:16;;;;;;;3.33;1.70;;;21.40;39.60;;;;;;5003563;28;20037;-66
2022/03/29 07:12:50;;;;;;;2.50;1.80;;;21.30;39.60;;;;;;4980978;28;20443;-66
2022/03/29 07:15:17;;;;;;;3.58;1.73;;;21.40;39.60;;;;;;4981881;28;20046;-66
2022/03/29 07:17:44;;;;;;;2.78;1.77;;;21.40;39.50;;;;;;4985772;28;20046;-64
2022/03/29 07:20:10;;;;;;;2.33;1.70;;;21.40;39.50;;;;;;5004778;28;20041;-63
2022/03/29 07:22:36;;;;;;;2.47;1.65;;;21.30;39.50;;;;;;4997177;28;20053;-66
2022/03/29 07:25:01;;;;;;;2.95;1.67;;;21.40;39.50;;;;;;5003759;28;20100;-64
2022/03/29 07:27:27;;;;;;;2.45;1.73;;;21.30;39.40;;;;;;5000923;28;20030;-61
2022/03/29 07:29:53;;;;;;;2.67;1.83;;;21.30;39.40;;;;;;5004279;28;20025;-65
2022/03/29 07:32:19;;;;;;;2.40;1.80;;;21.30;39.40;;;;;;4999740;28;20125;-65
2022/03/29 07:34:44;;;;;;;2.38;1.70;;;21.30;39.40;;;;;;5002241;28;20037;-65
2022/03/29 07:37:10;;;;;;;3.03;2.10;;;21.30;39.40;;;;;;5004554;28;20510;-62
2022/03/29 07:39:35;;;;;;;3.58;2.10;;;21.30;39.40;;;;;;5004215;28;20033;-65
2022/03/29 07:42:01;;;;;;;2.85;1.95;;;21.30;39.40;;;;;;5001917;28;20035;-65
2022/03/29 07:44:27;;;;;;;2.92;2.10;;;21.30;39.30;;;;;;5001874;28;20022;-66
2022/03/29 07:46:52;;;;;;;2.60;1.90;;;21.30;39.30;;;;;;5000975;28;20057;-66
2022/03/29 07:49:18;;;;;;;2.80;1.88;;;21.30;39.20;;;;;;5002570;28;20038;-61
2022/03/29 07:51:44;;;;;;;2.92;1.90;;;21.30;39.20;;;;;;5003005;28;20040;-64
2022/03/29 07:54:09;;;;;;;2.90;2.20;;;21.30;39.20;;;;;;5003188;28;20350;-66
2022/03/29 07:56:35;;;;;;;3.35;2.17;;;21.30;39.20;;;;;;5002046;28;20358;-63
2022/03/29 07:59:01;;;;;;;3.00;2.03;;;21.30;39.20;;;;;;5003886;28;20049;-64
2022/03/29 08:01:28;;;;;;;3.08;2.08;;;21.30;39.10;;;;;;5000165;28;20054;-65
2022/03/29 08:03:55;;;;;;;3.35;2.15;;;21.30;39.10;;;;;;5001550;28;20456;-63
2022/03/29 08:06:21;;;;;;;2.92;1.90;;;21.30;39.10;;;;;;5003411;28;20056;-65
2022/03/29 08:08:47;;;;;;;2.83;2.05;;;21.30;39.10;;;;;;5005040;28;20573;-63
2022/03/29 08:11:13;;;;;;;2.63;1.92;;;21.30;39.00;;;;;;5000290;28;20152;-62
2022/03/29 08:13:38;;;;;;;3.67;2.42;;;21.30;39.10;;;;;;4999751;28;20192;-64
2022/03/29 08:16:05;;;;;;;3.00;2.00;;;21.30;39.00;;;;;;5000562;28;20038;-62
2022/03/29 08:18:31;;;;;;;3.28;2.10;;;21.30;39.00;;;;;;5004803;28;20036;-64
2022/03/29 08:20:57;;;;;;;3.33;2.20;;;21.30;39.00;;;;;;5007582;28;20091;-66
2022/03/29 08:23:23;;;;;;;2.85;2.13;;;21.30;39.00;;;;;;5004635;28;20038;-63
2022/03/29 08:25:48;;;;;;;3.45;2.00;;;21.30;39.00;;;;;;5007659;28;20048;-66
2022/03/29 08:28:15;;;;;;;3.33;2.33;;;21.30;39.50;;;;;;5006549;28;20549;-65
2022/03/29 08:30:41;;;;;;;3.20;2.30;;;21.30;38.80;;;;;;5006167;28;20030;-63
2022/03/29 08:33:08;;;;;;;2.85;2.22;;;21.30;38.80;;;;;;5003523;28;20371;-66
2022/03/29 08:35:39;;;;;;;3.22;2.30;;;21.20;38.70;;;;;;5002882;28;20116;-64
2022/03/29 08:38:05;;;;;;;3.35;2.40;;;21.20;38.60;;;;;;5004708;28;20451;-65
2022/03/29 08:40:32;;;;;;;3.33;2.38;;;21.20;38.50;;;;;;5007660;28;20049;-65
2022/03/29 08:43:00;;;;;;;3.60;2.70;;;21.20;38.40;;;;;;5003918;28;20037;-63
2022/03/29 08:45:30;;;;;;;3.58;2.53;;;21.20;38.40;;;;;;5005965;28;20478;-65
2022/03/29 08:47:59;;;;;;;3.05;2.33;;;21.20;38.40;;;;;;5001328;28;20025;-62
2022/03/29 08:50:28;;;;;;;3.63;2.58;;;21.20;38.40;;;;;;5006685;28;20030;-61
2022/03/29 08:52:55;;;;;;;3.58;2.63;;;21.20;38.40;;;;;;5004508;28;20133;-66
2022/03/29 08:55:22;;;;;;;3.88;2.88;;;21.20;38.30;;;;;;5005230;28;20060;-64
2022/03/29 08:57:52;;;;;;;3.08;2.38;;;21.20;38.30;;;;;;5005872;28;20040;-66
2022/03/29 09:00:18;;;;;;;3.90;2.90;;;21.20;38.30;;;;;;5003807;28;20030;-66
2022/03/29 09:02:43;;;;;;;4.65;2.72;;;21.20;38.20;;;;;;5001521;28;20374;-65
2022/03/29 09:05:13;;;;;;;3.38;2.67;;;21.20;38.30;;;;;;5003804;28;20038;-66
2022/03/29 09:07:47;;;;;;;3.70;2.70;;;21.20;38.20;;;;;;5005168;28;20089;-63
2022/03/29 09:10:13;;;;;;;4.28;3.00;;;21.20;38.20;;;;;;5006694;28;20018;-64
2022/03/29 09:12:39;;;;;;;4.07;2.70;;;21.20;38.10;;;;;;5005221;28;20022;-62
2022/03/29 09:15:05;;;;;;;3.60;2.75;;;21.20;38.20;;;;;;5004374;28;20442;-67
2022/03/29 09:17:35;;;;;;;4.55;2.95;;;21.20;38.20;;;;;;5002496;28;20030;-65
2022/03/29 09:20:02;;;;;;;;;;;21.20;38.50;;;;;;5005743;28;20494;-66
2022/03/29 09:22:50;;;;;;;3.10;2.28;;;21.20;38.00;;;;;;5004818;28;19951;-66
2022/03/29 09:25:20;;;;;;;3.25;2.42;;;21.20;37.90;;;;;;5005184;28;20188;-63
2022/03/29 09:28:00;;;;;;;3.33;2.55;;;21.20;37.90;;;;;;5004515;28;20022;-66
2022/03/29 09:30:52;;;;;;;4.38;2.88;;;21.20;37.80;;;;;;5004140;28;20072;-63
2022/03/29 09:33:31;;;;;;;3.70;2.60;;;21.20;37.80;;;;;;5001825;28;20122;-66
2022/03/29 09:36:10;;;;;;;3.78;2.78;;;21.20;37.70;;;;;;5006830;28;20034;-63
2022/03/29 09:38:47;;;;;;;3.85;2.60;;;21.20;37.70;;;;;;5005563;28;20125;-66
2022/03/29 09:41:28;;;;;;;3.95;2.90;;;21.20;37.70;;;;;;5005229;28;20044;-66
2022/03/29 09:44:16;;;;;;;3.90;2.63;;;21.20;37.70;;;;;;5005030;28;20663;-64
2022/03/29 09:47:02;;;;;;;3.90;2.63;;;21.20;37.70;;;;;;5003639;28;20179;-65
2022/03/29 09:49:28;;;;;;;3.53;2.55;;;21.20;37.70;;;;;;5004690;28;20042;-66
2022/03/29 09:52:15;;;;;;;3.88;2.83;;;21.20;37.70;;;;;;5004829;28;20435;-63
2022/03/29 09:54:42;;;;;;;4.32;2.58;;;21.20;37.70;;;;;;5004858;28;20018;-64
2022/03/29 09:57:09;;;;;;;4.40;2.67;;;21.10;37.60;;;;;;5005727;28;20046;-64
2022/03/29 09:59:48;;;;;;;4.00;2.75;;;21.20;37.70;;;;;;5002116;28;20084;-66
2022/03/29 10:02:13;;;;;;;3.78;2.60;;;21.20;37.70;;;;;;4998856;28;20084;-65
2022/03/29 10:04:40;;;;;;;3.90;2.65;;;21.20;37.60;;;;;;5003408;28;20447;-62
2022/03/29 10:07:10;;;;;;;3.40;2.70;;;21.20;37.70;;;;;;5005056;28;20113;-63
2022/03/29 10:09:38;;;;;;;3.90;2.88;;;21.20;37.70;;;;;;5001120;28;20022;-66
2022/03/29 10:12:09;;;;;;;3.75;2.80;;;21.20;37.70;;;;;;4999634;28;20029;-66
2022/03/29 10:14:43;;;;;;;3.78;2.70;;;21.20;37.70;;;;;;5002606;28;20394;-64
2022/03/29 10:17:09;;;;;;;3.67;2.67;;;21.20;37.70;;;;;;4998651;28;20026;-65
2022/03/29 10:19:37;;;;;;;3.70;2.78;;;21.20;37.70;;;;;;4997999;28;20402;-66
2022/03/29 10:22:04;;;;;;;3.92;2.75;;;21.20;37.80;;;;;;5004742;28;20514;-67
2022/03/29 10:24:30;;;;;;;3.30;2.40;;;21.20;37.70;;;;;;5009832;28;20125;-65
2022/03/29 10:26:59;;;;;;;3.65;2.58;;;21.20;37.70;;;;;;5003327;28;20072;-65
2022/03/29 10:29:26;;;;;;;4.22;2.80;;;21.20;37.70;;;;;;5003181;28;20565;-64
2022/03/29 10:32:01;;;;;;;3.83;2.70;;;21.20;37.80;;;;;;4995399;28;20049;-64
2022/03/29 10:34:40;;;;;;;3.85;2.60;;;21.20;37.80;;;;;;4998368;28;20030;-66
2022/03/29 10:37:09;;;;;;;3.75;2.65;;;21.20;37.80;;;;;;5000606;28;20542;-66
2022/03/29 10:39:48;;;;;;;3.80;2.67;;;21.20;37.80;;;;;;5003412;28;20034;-66
2022/03/29 10:42:51;;;;;;;4.00;2.80;;;21.20;37.80;;;;;;5003525;28;20446;-66
2022/03/29 10:45:35;;;;;;;3.90;2.80;;;21.20;37.90;;;;;;4998193;28;20157;-63
2022/03/29 10:48:00;;;;;;;4.65;2.58;;;21.20;37.90;;;;;;5001466;28;20467;-66
2022/03/29 10:50:53;;;;;;;3.90;2.70;;;21.20;38.00;;;;;;5004046;28;20033;-64
2022/03/29 10:53:25;;;;;;;4.43;2.70;;;21.20;38.00;;;;;;5001309;28;20068;-66
2022/03/29 10:56:17;;;;;;;3.67;2.63;;;21.10;38.10;;;;;;5002820;28;20033;-66
2022/03/29 10:59:04;;;;;;;3.65;2.50;;;21.20;38.20;;;;;;4995681;28;20092;-66
2022/03/29 11:01:30;;;;;;;3.42;2.28;;;21.20;38.20;;;;;;4997744;28;20498;-61
2022/03/29 11:04:04;;;;;;;3.40;2.30;;;21.20;38.20;;;;;;4999530;28;20576;-64
2022/03/29 11:06:30;;;;;;;3.40;2.60;;;21.20;38.20;;;;;;5000347;28;20108;-64
2022/03/29 11:09:17;;;;;;;4.50;2.72;;;21.20;38.20;;;;;;4998571;28;20123;-67
2022/03/29 11:11:47;;;;;;;3.95;2.60;;;21.20;38.20;;;;;;5002811;28;20111;-67
2022/03/29 11:14:33;;;;;;;5.10;2.70;;;21.20;38.20;;;;;;5003115;28;20030;-66
2022/03/29 11:17:08;;;;;;;4.63;2.72;;;21.20;38.20;;;;;;4996694;28;20045;-66
2022/03/29 11:19:46;;;;;;;3.85;2.70;;;21.20;38.20;;;;;;5002029;28;20041;-67
2022/03/29 11:22:30;;;;;;;5.32;2.88;;;21.20;38.20;;;;;;5000751;28;20026;-61
2022/03/29 11:25:00;;;;;;;4.50;2.72;;;21.20;38.30;;;;;;4997752;28;20518;-64
2022/03/29 11:27:32;;;;;;;4.53;2.78;;;21.20;38.70;;;;;;5001175;28;20114;-66
2022/03/29 11:29:58;;;;;;;5.30;3.00;;;21.20;39.60;;;;;;5000709;28;20037;-66
2022/03/29 11:32:24;;;;;;;4.60;2.75;;;21.20;40.50;;;;;;4999548;28;20042;-61
2022/03/29 11:34:55;;;;;;;4.97;2.88;;;21.20;41.20;;;;;;4998583;28;20030;-67
2022/03/29 11:37:40;;;;;;;5.53;2.80;;;21.20;41.70;;;;;;5016706;28;20108;-67
2022/03/29 11:40:08;;;;;;;4.13;2.38;;;21.20;41.40;;;;;;4998687;28;20033;-66
2022/03/29 11:42:50;;;;;;;4.13;2.40;;;21.20;41.00;;;;;;5000188;28;20018;-65
2022/03/29 11:45:19;;;;;;;5.35;2.63;;;21.20;40.80;;;;;;4996488;28;20356;-66
2022/03/29 11:48:00;;;;;;;4.15;2.47;;;21.20;41.20;;;;;;4998700;28;20026;-65
2022/03/29 11:50:32;;;;;;;6.28;2.60;;;21.20;40.70;;;;;;5007715;28;20044;-66
2022/03/29 11:52:59;;;;;;;4.30;2.45;;;21.20;40.80;;;;;;5005715;28;20022;-65
2022/03/29 11:55:25;;;;;;;6.15;2.47;;;21.20;40.80;;;;;;5005305;28;20034;-65
2022/03/29 11:57:52;;;;;;;5.50;2.60;;;21.20;40.70;;;;;;5001986;28;20029;-67
2022/03/29 12:00:24;;;;;;;4.93;2.50;;;21.20;40.70;;;;;;5003403;28;20125;-63
2022/03/29 12:02:51;;;;;;;4.97;2.30;;;21.30;40.70;;;;;;5003265;28;20549;-63
2022/03/29 12:05:26;;;;;;;5.18;2.42;;;21.30;40.70;;;;;;5005710;28;20092;-62
2022/03/29 12:07:57;;;;;;;5.10;2.55;;;21.30;40.70;;;;;;5001913;28;20054;-66
2022/03/29 12:10:28;;;;;;;4.47;2.40;;;21.30;40.70;;;;;;5005009;28;20034;-62
2022/03/29 12:12:53;;;;;;;5.63;2.63;;;21.30;40.60;;;;;;5003382;28;20528;-66
2022/03/29 12:15:20;;;;;;;5.60;2.85;;;21.30;40.60;;;;;;5004174;28;20089;-61
2022/03/29 12:20:44;;;;;;;4.72;2.63;;;21.30;40.60;;;;;;5004395;28;20428;-65
2022/03/29 12:23:27;;;;;;;4.60;2.20;;;21.30;40.60;;;;;;5004106;28;20038;-63
2022/03/29 12:25:55;;;;;;;3.85;2.35;;;21.30;40.60;;;;;;5004944;28;20018;-63
2022/03/29 12:28:21;;;;;;;5.22;2.55;;;21.30;40.50;;;;;;5005058;28;20054;-63
2022/03/29 12:30:47;;;;;;;5.22;2.30;;;21.30;40.50;;;;;;4999799;28;20050;-65
2022/03/29 12:33:15;;;;;;;4.72;2.60;;;21.30;40.40;;;;;;5001532;28;20383;-67
2022/03/29 12:35:41;;;;;;;5.72;2.25;;;21.30;40.40;;;;;;5010694;28;20189;-66
2022/03/29 12:38:10;;;;;;;5.18;3.10;;;21.30;40.30;;;;;;5004850;28;20038;-64
2022/03/29 12:40:37;;;;;;;4.65;2.38;;;21.30;40.30;;;;;;5005526;28;20037;-66
2022/03/29 12:43:08;;;;;;;6.43;2.50;;;21.30;40.30;;;;;;5004060;28;20045;-62
2022/03/29 12:45:35;;;;;;;4.00;2.60;;;21.30;40.30;;;;;;5001267;28;20402;-66
2022/03/29 12:48:02;;;;;;;5.13;2.28;;;21.30;40.30;;;;;;5002316;28;20030;-66
2022/03/29 12:50:29;;;;;;;6.05;2.88;;;21.30;40.20;;;;;;5002585;28;20112;-65
2022/03/29 12:53:07;;;;;;;3.65;2.25;;;21.30;40.20;;;;;;5002934;28;20412;-66
2022/03/29 12:55:33;;;;;;;5.05;2.28;;;21.30;40.20;;;;;;5002566;28;20029;-66
2022/03/29 12:58:03;;;;;;;4.22;2.30;;;21.30;40.20;;;;;;5004071;28;20026;-66
2022/03/29 13:00:41;;;;;;;3.88;2.38;;;21.30;40.10;;;;;;5002706;28;20065;-63
2022/03/29 13:03:08;;;;;;;4.20;2.08;;;21.30;40.10;;;;;;5000761;28;20033;-67